Latest Weather Observations for Horsham

IDV60801

Issued at 2:02 pm EST Saturday 28 May 2016 (issued every 30 minutes, with the page automatically refreshed every 10 minutes)

About weather observations | Map of weather stations | Latest weather observations for VIC | Other Formats
Station Details ID: 079100 Name: HORSHAM AERODROME Lat: -36.67 Lon: 142.17 Height: 133.8 m
Data from the previous 72 hours. | See also: Recent months at Horsham
Date/Time
EST
Temp
°C
App
Temp
°C
Dew
Point
Rel
Hum
%
Delta-T
°C
Wind Press
QNH
hPa
Press
MSL
hPa
Rain
since 9 am
mm
Dir
 
Spd
km/h
Gust
km/h
Spd
kts
Gust
kts
28/02:00pm 13.1 7.8 6.7 65 3.1 SSW 24 32 13 17 1014.3 1014.3 0.0
28/01:30pm 13.6 8.8 7.4 66 3.1 SSW 22 32 12 17 1014.3 1014.3 0.0
28/01:00pm 13.3 7.4 7.3 67 2.9 SSW 28 35 15 19 1014.3 1014.3 0.0
28/12:30pm 12.4 6.5 7.5 72 2.4 S 28 35 15 19 1014.1 1014.1 0.0
28/12:00pm 11.8 6.8 7.9 77 1.9 SSW 24 32 13 17 1014.3 1014.3 0.0
28/11:30am 11.5 7.4 7.8 78 1.8 SSW 19 26 10 14 1014.5 1014.5 0.0
28/11:00am 11.7 7.6 8.7 82 1.5 SSW 20 26 11 14 1014.4 1014.4 0.0
28/10:30am 10.9 6.7 8.3 84 1.3 SSW 20 24 11 13 1014.4 1014.4 0.0
28/10:00am 11.1 7.0 7.8 80 1.6 S 19 24 10 13 1014.1 1014.1 0.0
28/09:30am 9.4 5.0 7.5 88 0.9 SSW 20 26 11 14 1013.7 1013.7 0.0
28/09:00am 8.5 4.6 7.3 92 0.6 SW 17 20 9 11 1013.3 1013.4 11.6
28/08:30am 7.7 3.7 6.6 93 0.5 SSW 17 19 9 10 1012.7 1012.8 11.6
28/08:00am 7.2 2.5 6.1 93 0.5 SSW 20 24 11 13 1012.1 1012.2 11.6
28/07:30am 7.2 3.1 6.0 92 0.5 SSW 17 20 9 11 1011.6 1011.7 11.6
28/07:00am 6.8 2.2 5.7 93 0.5 S 19 20 10 11 1011.1 1011.2 11.6
28/06:30am 7.4 3.3 6.2 92 0.5 S 17 20 9 11 1010.6 1010.7 11.6
28/06:00am 7.9 3.5 6.7 92 0.6 S 19 20 10 11 1010.2 1010.3 11.6
28/05:30am 8.0 4.5 7.1 94 0.4 S 15 19 8 10 1009.5 1009.6 11.6
28/05:00am 8.4 5.0 7.8 96 0.3 S 15 17 8 9 1009.1 1009.2 11.6
28/04:30am 8.9 6.4 8.3 96 0.3 S 11 13 6 7 1008.8 1008.8 11.6
28/04:00am 9.1 5.9 8.5 96 0.3 S 15 17 8 9 1008.7 1008.7 11.6
28/03:43am 9.1 6.0 8.8 98 0.1 S 15 17 8 9 1008.4 1008.4 11.4
28/03:30am 9.2 5.3 8.7 97 0.2 SSE 19 24 10 13 1008.3 1008.3 11.4
28/03:03am 9.3 6.2 8.8 97 0.2 S 15 17 8 9 1008.1 1008.1 11.2
28/03:00am 9.3 6.2 8.8 97 0.2 S 15 17 8 9 1008.1 1008.1 11.2
28/02:30am 9.4 6.7 8.9 97 0.2 S 13 15 7 8 1007.7 1007.7 11.0
28/02:00am 9.5 6.8 9.0 97 0.2 SSW 13 15 7 8 1007.4 1007.4 11.0
28/01:30am 9.5 7.3 9.2 98 0.1 SSW 11 13 6 7 1007.0 1007.0 11.0
28/01:00am 9.5 7.6 9.2 98 0.1 SSW 9 11 5 6 1006.8 1006.8 11.0
28/12:30am 9.3 7.7 8.8 97 0.2 SSW 7 9 4 5 1006.7 1006.7 11.0
28/12:00am 9.5 7.6 8.9 96 0.3 S 9 11 5 6 1006.5 1006.5 11.0
 
Date/Time
EST
Temp
°C
App
Temp
°C
Dew
Point
Rel
Hum
%
Delta-T
°C
Wind Press
QNH
hPa
Press
MSL
hPa
Rain
since 9 am
mm
Dir
 
Spd
km/h
Gust
km/h
Spd
kts
Gust
kts
27/11:30pm 9.4 7.0 8.8 96 0.3 S 11 13 6 7 1006.3 1006.3 11.0
27/11:00pm 9.5 7.2 8.9 96 0.3 SE 11 13 6 7 1006.2 1006.2 11.0
27/10:30pm 9.8 8.0 9.3 97 0.2 SE 9 11 5 6 1006.2 1006.2 11.0
27/10:00pm 9.8 8.5 9.3 97 0.3 E 6 9 3 5 1006.2 1006.2 11.0
27/09:30pm 9.9 9.8 9.4 97 0.3 CALM 0 0 0 0 1006.1 1006.1 10.8
27/09:01pm 9.7 9.2 9.2 97 0.2 NE 2 6 1 3 1006.0 1006.0 10.8
27/09:00pm 9.7 9.2 9.2 97 0.2 NE 2 6 1 3 1006.0 1006.0 10.8
27/08:30pm 9.7 9.2 9.2 97 0.2 SSE 2 7 1 4 1005.6 1005.7 8.4
27/08:19pm 9.9 8.5 9.4 97 0.3 SE 7 11 4 6 1005.6 1005.7 6.8
27/08:00pm 10.0 8.7 9.2 95 0.4 NE 6 9 3 5 1005.4 1005.5 5.8
27/07:30pm 10.0 8.6 9.5 97 0.3 NNE 7 7 4 4 1005.4 1005.5 5.8
27/07:00pm 10.2 8.9 9.9 98 0.2 NE 7 11 4 6 1005.3 1005.4 5.6
27/06:30pm 10.1 8.3 9.6 97 0.3 NE 9 9 5 5 1005.3 1005.4 5.4
27/06:00pm 10.1 8.3 9.5 96 0.3 ENE 9 11 5 6 1005.0 1005.1 5.4
27/05:30pm 10.4 8.6 9.6 95 0.4 ESE 9 13 5 7 1004.7 1004.8 5.4
27/05:00pm 10.8 9.6 10.2 96 0.3 E 7 9 4 5 1004.6 1004.7 5.2
27/04:30pm 10.8 9.2 10.2 96 0.3 SSE 9 11 5 6 1004.3 1004.4 4.8
27/04:00pm 10.9 8.5 10.0 94 0.5 SW 13 17 7 9 1004.5 1004.6 3.8
27/03:30pm 11.9 9.8 11.3 96 0.3 ENE 13 17 7 9 1004.3 1004.4 3.2
27/03:00pm 11.4 8.4 10.6 95 0.4 NE 17 19 9 10 1004.4 1004.5 2.6
27/02:30pm 11.8 8.4 10.7 93 0.6 NNE 19 32 10 17 1004.6 1004.7 1.2
27/02:00pm 11.5 8.1 10.7 95 0.4 NNE 19 26 10 14 1004.9 1005.0 1.2
27/01:55pm 11.5 8.9 10.6 94 0.5 NNE 15 24 8 13 1005.1 1005.2 1.2
27/01:33pm 11.4 7.1 10.6 95 0.4 N 24 28 13 15 1005.5 1005.6 0.6
27/01:30pm 11.6 7.3 10.7 94 0.5 N 24 28 13 15 1005.6 1005.7 0.4
27/01:25pm 11.9 7.7 11.0 94 0.5 NNE 24 28 13 15 1005.6 1005.7 0.4
27/01:09pm 12.0 8.0 10.4 90 0.8 N 22 28 12 15 1005.9 1005.9 0.2
27/01:00pm 12.3 8.1 9.7 84 1.3 NNE 22 30 12 16 1006.0 1006.0 0.0
27/12:30pm 12.4 8.7 10.3 87 1.1 NNE 20 24 11 13 1006.5 1006.5 0.0
27/12:00pm 11.0 7.4 9.9 93 0.6 NNE 19 22 10 12 1007.2 1007.2 0.0
27/11:51am 11.1 7.8 10.9 99 0.1 NNE 19 24 10 13 1007.3 1007.3 0.0
27/11:30am 10.2 7.4 10.1 99 0.1 NE 15 19 8 10 1007.8 1007.8 0.0
27/11:00am 9.1 6.4 9.0 99 0.0 NE 13 19 7 10 1008.5 1008.5 0.0
27/10:30am 7.7 5.4 7.6 99 0.0 ENE 9 13 5 7 1008.9 1008.9 0.0
27/10:00am 6.5 4.0 6.4 99 0.0 NE 9 11 5 6 1009.1 1009.2 0.0
27/09:30am 5.8 3.5 5.7 99 0.0 NE 7 9 4 5 1009.3 1009.4 0.0
27/09:00am 4.8 2.3 4.7 99 0.0 E 7 7 4 4 1009.3 1009.4 0.0
27/08:30am 3.5 0.9 3.4 99 0.0 ESE 6 7 3 4 1009.3 1009.4 0.0
27/08:00am 2.4 0.8 2.3 99 0.0 CALM 0 7 0 4 1009.1 1009.2 0.0
27/07:30am 2.5 -0.4 2.4 99 0.0 NW 7 9 4 5 1009.2 1009.3 0.0
27/07:00am 2.4 -0.6 2.3 99 0.0 NNW 7 9 4 5 1009.2 1009.3 0.0
27/06:30am 2.3 -0.7 2.2 99 0.0 NNW 7 9 4 5 1009.1 1009.2 0.0
27/06:00am 2.2 -1.2 2.1 99 0.0 NNW 9 11 5 6 1009.1 1009.2 0.0
27/05:30am 2.2 -1.2 1.9 98 0.1 N 9 11 5 6 1009.0 1009.1 0.0
27/05:00am 2.4 0.7 2.0 97 0.2 CALM 0 2 0 1 1009.0 1009.1 0.0
27/04:34am 3.7 2.3 3.4 98 0.1 CALM 0 6 0 3 1009.1 1009.2 0.0
27/04:30am 4.5 2.8 4.2 98 0.1 W 2 6 1 3 1009.1 1009.2 0.0
27/04:00am 4.6 2.0 4.2 97 0.2 WSW 7 11 4 6 1009.1 1009.2 0.0
27/03:30am 5.5 1.9 5.2 98 0.1 WNW 13 15 7 8 1009.1 1009.2 0.0
27/03:00am 5.5 2.3 5.1 97 0.2 WNW 11 15 6 8 1009.3 1009.4 0.0
27/02:30am 6.2 2.4 5.8 97 0.2 W 15 17 8 9 1009.3 1009.4 0.0
27/02:00am 6.7 3.3 6.0 95 0.3 W 13 17 7 9 1009.3 1009.4 0.0
27/01:30am 7.0 3.3 6.3 95 0.3 W 15 17 8 9 1009.1 1009.2 0.0
27/01:00am 6.8 3.0 5.9 94 0.4 W 15 17 8 9 1009.3 1009.4 0.0
27/12:30am 7.7 4.1 6.6 93 0.5 W 15 19 8 10 1009.6 1009.7 0.0
27/12:00am 8.0 4.4 6.8 92 0.6 W 15 19 8 10 1009.7 1009.8 0.0
 
Date/Time
EST
Temp
°C
App
Temp
°C
Dew
Point
Rel
Hum
%
Delta-T
°C
Wind Press
QNH
hPa
Press
MSL
hPa
Rain
since 9 am
mm
Dir
 
Spd
km/h
Gust
km/h
Spd
kts
Gust
kts
26/11:30pm 6.8 3.7 5.7 93 0.5 W 11 13 6 7 1009.6 1009.7 0.0
26/11:00pm 8.1 6.1 7.0 93 0.5 SW 7 9 4 5 1009.6 1009.7 0.0
26/10:30pm 8.9 5.8 7.4 90 0.7 W 13 13 7 7 1009.7 1009.8 0.0
26/10:00pm 8.8 6.0 6.8 87 0.9 W 11 13 6 7 1009.8 1009.9 0.0
26/09:30pm 9.8 6.7 7.2 84 1.2 W 13 17 7 9 1009.8 1009.9 0.0
26/09:00pm 9.5 6.4 7.3 86 1.1 W 13 15 7 8 1009.6 1009.7 0.0
26/08:30pm 8.6 5.8 7.1 90 0.7 W 11 13 6 7 1009.4 1009.5 0.0
26/08:00pm 8.8 6.4 6.9 88 0.9 W 9 11 5 6 1009.2 1009.3 0.0
26/07:30pm 8.9 6.5 6.9 87 0.9 W 9 13 5 7 1009.1 1009.2 0.0
26/07:00pm 9.6 6.4 6.9 83 1.3 WSW 13 15 7 8 1008.9 1008.9 0.0
26/06:30pm 9.8 7.0 7.1 83 1.3 SW 11 15 6 8 1008.5 1008.5 0.0
26/06:00pm 10.2 6.7 7.1 81 1.5 SW 15 19 8 10 1008.2 1008.2 0.0
26/05:30pm 11.5 8.1 7.6 77 1.9 SW 15 17 8 9 1007.7 1007.7 0.0
26/05:00pm 11.9 7.7 7.4 74 2.2 SW 19 24 10 13 1007.4 1007.4 0.0
26/04:30pm 12.8 9.1 7.9 72 2.4 SW 17 20 9 11 1007.2 1007.2 0.0
26/04:00pm 12.7 8.4 7.8 72 2.4 WSW 20 28 11 15 1006.9 1006.9 0.0
26/03:30pm 13.7 7.5 7.9 68 2.9 SW 30 35 16 19 1006.5 1006.5 0.0
26/03:00pm 13.6 7.4 6.0 60 3.6 SW 28 35 15 19 1006.3 1006.3 0.0
26/02:30pm 14.2 7.4 6.8 61 3.6 SSW 32 39 17 21 1006.0 1006.0 0.0
26/02:00pm 13.6 6.9 7.2 65 3.2 SW 32 39 17 21 1006.1 1006.1 0.0
26/01:30pm 13.7 6.8 6.6 62 3.4 SW 32 41 17 22 1006.2 1006.2 0.0
26/01:00pm 14.2 8.0 7.9 66 3.2 SW 30 37 16 20 1006.2 1006.2 0.0
26/12:30pm 13.4 6.4 7.0 65 3.1 SW 33 43 18 23 1006.3 1006.3 0.0
26/12:00pm 13.1 7.0 8.4 73 2.4 SW 30 39 16 21 1006.3 1006.3 0.0
26/11:30am 13.2 7.1 8.1 71 2.5 SW 30 35 16 19 1006.3 1006.3 0.0
26/11:00am 12.7 7.4 8.4 75 2.2 SW 26 35 14 19 1006.5 1006.5 0.0
26/10:30am 11.9 7.0 8.6 80 1.6 SW 24 32 13 17 1006.5 1006.5 0.0
26/10:00am 11.6 6.5 9.3 86 1.2 SW 26 32 14 17 1006.5 1006.5 0.0
26/09:30am 11.0 6.0 9.6 91 0.7 SW 26 35 14 19 1006.5 1006.5 0.0
26/09:00am 10.8 6.2 9.6 92 0.6 SW 24 37 13 20 1006.3 1006.3 12.4
26/08:30am 10.2 6.8 9.1 93 0.5 WSW 17 22 9 12 1005.9 1005.9 12.4
26/08:00am 10.3 6.9 9.2 93 0.6 WSW 17 22 9 12 1005.3 1005.4 12.4
26/07:30am 10.7 7.1 9.9 95 0.4 WSW 19 24 10 13 1005.1 1005.2 12.2
26/07:00am 10.8 7.6 10.0 95 0.4 SW 17 19 9 10 1004.8 1004.9 12.2
26/06:30am 11.0 7.9 10.4 96 0.3 SW 17 20 9 11 1004.6 1004.7 12.2
26/06:00am 11.2 7.5 10.3 94 0.5 SW 20 26 11 14 1004.6 1004.7 12.2
26/05:30am 11.3 8.3 10.5 95 0.4 WSW 17 22 9 12 1004.7 1004.8 12.2
26/05:00am 11.3 9.2 11.1 99 0.1 WSW 13 19 7 10 1004.3 1004.4 12.2
26/04:30am 11.4 8.9 11.2 99 0.1 WNW 15 19 8 10 1004.3 1004.4 12.2
26/04:00am 11.2 8.7 11.0 99 0.1 WNW 15 19 8 10 1004.1 1004.2 12.2
26/03:30am 11.1 7.6 10.9 99 0.1 NW 20 26 11 14 1004.6 1004.7 12.2
26/03:00am 11.0 8.4 10.8 99 0.1 NW 15 22 8 12 1004.7 1004.8 12.2
26/02:30am 10.9 8.3 10.7 99 0.1 NNW 15 17 8 9 1004.6 1004.7 12.2
26/02:00am 10.8 7.4 10.6 99 0.1 NNW 19 22 10 12 1004.8 1004.9 12.0
26/01:30am 10.7 7.7 10.5 99 0.1 NNW 17 20 9 11 1004.9 1005.0 12.0
26/01:00am 10.6 7.0 10.4 99 0.1 NNW 20 24 11 13 1005.2 1005.3 11.6
26/12:30am 10.5 6.5 10.3 99 0.1 NNW 22 26 12 14 1005.6 1005.7 11.4
26/12:00am 10.5 6.8 10.3 99 0.1 N 20 24 11 13 1006.2 1006.2 11.4
 
Date/Time
EST
Temp
°C
App
Temp
°C
Dew
Point
Rel
Hum
%
Delta-T
°C
Wind Press
QNH
hPa
Press
MSL
hPa
Rain
since 9 am
mm
Dir
 
Spd
km/h
Gust
km/h
Spd
kts
Gust
kts
25/11:30pm 10.4 6.9 10.2 99 0.1 N 19 22 10 12 1006.4 1006.4 11.4
25/11:00pm 10.3 6.6 10.1 99 0.1 N 20 24 11 13 1006.6 1006.6 11.4
25/10:30pm 10.3 7.1 10.1 99 0.1 N 17 20 9 11 1007.1 1007.1 11.2
25/10:00pm 10.2 7.0 10.1 99 0.1 N 17 20 9 11 1007.2 1007.2 11.2
25/09:30pm 10.2 6.5 10.1 99 0.1 N 20 26 11 14 1007.5 1007.5 11.2
25/09:00pm 10.1 6.0 10.0 99 0.1 N 22 28 12 15 1007.8 1007.8 10.6
25/08:46pm 10.1 5.6 10.0 99 0.1 N 24 30 13 16 1007.9 1007.9 10.4
25/08:43pm 10.1 5.9 9.8 98 0.2 N 22 28 12 15 1008.0 1008.0 10.4
25/08:30pm 10.1 5.6 10.0 99 0.1 N 24 32 13 17 1008.0 1008.0 10.0
25/08:00pm 10.1 5.9 9.8 98 0.2 N 22 28 12 15 1008.1 1008.1 9.2
25/07:30pm 10.1 6.3 9.8 98 0.2 N 20 26 11 14 1008.0 1008.0 9.2
25/07:29pm 10.1 6.3 9.8 98 0.2 N 20 26 11 14 1008.0 1008.0 9.2
25/07:17pm 10.1 5.5 9.8 98 0.2 N 24 32 13 17 1008.1 1008.1 9.2
25/07:00pm 10.0 4.7 9.7 98 0.2 N 28 32 15 17 1008.0 1008.0 9.2
25/06:43pm 10.1 5.5 9.8 98 0.2 N 24 33 13 18 1008.2 1008.2 9.0
25/06:30pm 10.2 5.7 9.9 98 0.2 N 24 30 13 16 1008.2 1008.2 9.0
25/06:26pm 10.2 5.7 9.9 98 0.2 N 24 28 13 15 1008.2 1008.2 8.8
25/06:00pm 10.2 5.3 9.9 98 0.2 N 26 32 14 17 1008.1 1008.1 7.0
25/05:30pm 10.3 4.2 9.8 97 0.3 N 32 37 17 20 1008.1 1008.1 6.0
25/05:27pm 10.3 4.2 9.8 97 0.3 N 32 39 17 21 1008.1 1008.1 6.0
25/05:26pm 10.3 4.2 9.8 97 0.3 N 32 39 17 21 1008.1 1008.1 5.6
25/05:08pm 10.3 4.0 9.7 96 0.3 N 33 41 18 22 1008.2 1008.2 5.6
25/05:00pm 10.4 4.3 9.6 95 0.4 N 32 41 17 22 1008.2 1008.2 5.4
25/04:30pm 10.3 5.3 9.7 96 0.3 N 26 32 14 17 1008.4 1008.4 5.4
25/04:14pm 10.2 4.8 9.6 96 0.3 N 28 33 15 18 1008.4 1008.4 5.4
25/04:00pm 10.2 5.2 9.7 97 0.3 N 26 35 14 19 1008.6 1008.6 5.4
25/03:43pm 10.2 4.9 9.7 97 0.3 N 28 33 15 18 1008.7 1008.7 5.2
25/03:30pm 10.3 5.0 9.7 96 0.3 N 28 35 15 19 1009.0 1009.1 5.2
25/03:27pm 10.2 5.2 9.7 97 0.3 N 26 35 14 19 1009.0 1009.1 5.2
25/03:00pm 10.2 4.9 9.7 97 0.3 N 28 35 15 19 1009.3 1009.4 5.0
25/02:43pm 10.3 4.5 9.5 95 0.4 NNW 30 37 16 20 1009.6 1009.7 4.8
25/02:30pm 10.4 5.0 9.6 95 0.4 N 28 35 15 19 1009.7 1009.8 4.8

Other Formats:

Comma delimited format used in spreadsheet applications
http://www.bom.gov.au/fwo/IDV60801/IDV60801.95839.axf

JavaScript Object Notation format (JSON) in row-major order
http://www.bom.gov.au/fwo/IDV60801/IDV60801.95839.json